Terminal Aerodrome Forecast
Issued by NWS

Home | Current Version | Previous Version | Text Only | Print | Product List | Glossary On
Versions: 1 2 3 4 5 6 7 8 9 10 11 12 13 14 15 16 17 18
000
FTUS44 KLIX 011543 AAC
TAFHDC
TAF AMD
KHDC 011543Z 0116/0212 03012KT 3SM TSRA OVC017CB
      TEMPO 0116/0117 VRB35G45KT 1/2SM +TSRA OVC006CB
     FM011900 16009KT P6SM +SHRA OVC035
     FM020000 16006KT P6SM OVC045
     FM020900 00000KT P6SM BKN003
     FM021100 VRB03KT P6SM BKN008=

USA.gov is the U.S. government's official web portal to all federal, state and local government web resources and services.